createdAt,value
2018-09-17T00:00:24.759Z,30.8
2018-09-17T00:01:26.339Z,30.8
2018-09-17T00:02:27.900Z,30.3
2018-09-17T00:03:29.464Z,29.8
2018-09-17T00:04:30.878Z,30.3
2018-09-17T00:05:32.107Z,29.8
2018-09-17T00:06:33.494Z,29.8
2018-09-17T00:07:35.078Z,30.3
2018-09-17T00:08:36.636Z,29.8
2018-09-17T00:09:38.193Z,29.8
2018-09-17T00:10:39.756Z,29.8
2018-09-17T00:11:41.318Z,30.3
2018-09-17T00:12:42.712Z,29.8
2018-09-17T00:13:44.277Z,30.3
2018-09-17T00:14:45.851Z,30.3
2018-09-17T00:15:47.411Z,30.3
2018-09-17T00:16:48.980Z,29.3
2018-09-17T00:17:50.540Z,29.8
2018-09-17T00:18:52.177Z,29.8
2018-09-17T00:19:53.552Z,29.3
2018-09-17T00:20:55.125Z,29.8
2018-09-17T00:21:56.694Z,29.8
2018-09-17T00:22:58.262Z,29.8
2018-09-17T00:23:59.817Z,30.3
2018-09-17T00:25:01.396Z,30.3
2018-09-17T00:26:02.957Z,29.3
2018-09-17T00:27:04.506Z,29.8
2018-09-17T00:28:06.059Z,29.8
2018-09-17T00:29:07.621Z,29.8
2018-09-17T00:30:09.174Z,29.8
2018-09-17T00:31:10.570Z,29.8
2018-09-17T00:32:11.984Z,29.8
2018-09-17T00:33:13.558Z,29.8
2018-09-17T00:34:15.144Z,29.8
2018-09-17T00:35:16.698Z,29.8
2018-09-17T00:36:18.274Z,29.8
2018-09-17T00:37:19.832Z,29.8
2018-09-17T00:38:21.228Z,29.3
2018-09-17T00:39:22.791Z,29.3
2018-09-17T00:40:24.349Z,29.8
2018-09-17T00:41:25.911Z,29.8
2018-09-17T00:42:27.304Z,29.8
2018-09-17T00:43:28.894Z,29.8
2018-09-17T00:44:30.293Z,29.3
2018-09-17T00:45:31.844Z,29.3
2018-09-17T00:46:33.412Z,29.3
2018-09-17T00:47:34.805Z,29.3
2018-09-17T00:48:36.399Z,29.8
2018-09-17T00:49:38.021Z,29.3
2018-09-17T00:50:39.578Z,29.8
2018-09-17T00:51:41.148Z,29.8
2018-09-17T00:52:42.716Z,29.3
2018-09-17T00:53:44.266Z,29.3
2018-09-17T00:54:45.653Z,29.8
2018-09-17T00:55:47.211Z,29.8
2018-09-17T00:56:48.780Z,29.8
2018-09-17T00:57:50.839Z,29.8
2018-09-17T00:58:52.550Z,29.3
2018-09-17T00:59:54.112Z,29.8
2018-09-17T01:00:55.696Z,29.8
2018-09-17T01:01:57.246Z,29.3
2018-09-17T01:02:58.796Z,28.8
2018-09-17T01:04:00.366Z,29.3
2018-09-17T01:05:01.600Z,30.3
2018-09-17T01:06:03.177Z,29.3
2018-09-17T01:07:04.585Z,29.3
2018-09-17T01:08:06.185Z,29.8
2018-09-17T01:09:07.747Z,30.3
2018-09-17T01:10:09.303Z,30.3
2018-09-17T01:11:10.857Z,29.3
2018-09-17T01:12:12.419Z,29.8
2018-09-17T01:13:13.989Z,29.3
2018-09-17T01:14:15.547Z,29.3
2018-09-17T01:15:17.110Z,29.8
2018-09-17T01:16:18.677Z,29.8
2018-09-17T01:17:20.226Z,30.3
2018-09-17T01:18:21.796Z,30.3
2018-09-17T01:19:23.347Z,30.3
2018-09-17T01:20:24.730Z,29.8
2018-09-17T01:21:26.845Z,30.8
2018-09-17T01:22:28.396Z,30.3
2018-09-17T01:23:29.956Z,30.3
2018-09-17T01:24:31.504Z,30.3
2018-09-17T01:25:33.064Z,30.8
2018-09-17T01:26:34.612Z,30.3
2018-09-17T01:27:36.175Z,29.8
2018-09-17T01:28:37.794Z,30.8
2018-09-17T01:29:39.351Z,30.3
2018-09-17T01:30:40.931Z,30.8
2018-09-17T01:31:42.512Z,30.3
2018-09-17T01:32:44.067Z,30.8
2018-09-17T01:33:45.295Z,30.3
2018-09-17T01:34:46.871Z,30.8
2018-09-17T01:35:48.421Z,31.3
2018-09-17T01:36:49.964Z,30.8
2018-09-17T01:37:51.527Z,31.3
2018-09-17T01:38:53.108Z,31.8
2018-09-17T01:39:54.673Z,31.3
2018-09-17T01:40:56.066Z,32.3
2018-09-17T01:41:57.622Z,32.3
2018-09-17T01:42:59.172Z,31.8
2018-09-17T01:44:00.559Z,32.3
2018-09-17T01:45:02.132Z,32.3
2018-09-17T01:46:03.916Z,32.7
2018-09-17T01:47:05.539Z,32.3
2018-09-17T01:48:07.108Z,32.3
2018-09-17T01:49:08.684Z,33.2
2018-09-17T01:50:10.256Z,33.2
2018-09-17T01:51:11.842Z,31.8
2018-09-17T01:52:13.397Z,33.2
2018-09-17T01:53:14.957Z,33.2
2018-09-17T01:54:16.529Z,33.2
2018-09-17T01:55:18.086Z,33.2
2018-09-17T01:56:19.647Z,32.7
2018-09-17T01:57:21.203Z,33.2
2018-09-17T01:58:22.603Z,33.7
2018-09-17T01:59:24.205Z,32.7
2018-09-17T02:00:25.755Z,33.2
2018-09-17T02:01:27.325Z,33.2
2018-09-17T02:02:28.749Z,33.2
2018-09-17T02:03:30.308Z,33.2
2018-09-17T02:04:31.870Z,33.7
2018-09-17T02:05:33.427Z,33.7
2018-09-17T02:06:34.997Z,33.2
2018-09-17T02:07:36.563Z,34.2
2018-09-17T02:08:38.605Z,34.2
2018-09-17T02:09:40.263Z,33.7
2018-09-17T02:10:41.512Z,33.7
2018-09-17T02:11:42.925Z,33.2
2018-09-17T02:12:44.505Z,34.2
2018-09-17T02:13:46.051Z,33.2
2018-09-17T02:14:47.600Z,34.2
2018-09-17T02:15:49.000Z,33.2
2018-09-17T02:16:50.580Z,34.2
2018-09-17T02:17:51.968Z,33.2
2018-09-17T02:18:53.525Z,33.7
2018-09-17T02:19:55.085Z,33.7
2018-09-17T02:20:56.646Z,33.2
2018-09-17T02:21:58.203Z,34.2
2018-09-17T02:22:59.764Z,33.7
2018-09-17T02:24:01.341Z,33.7
2018-09-17T02:25:02.926Z,33.7
2018-09-17T02:26:04.313Z,33.2
2018-09-17T02:27:05.883Z,33.7
2018-09-17T02:28:07.450Z,33.2
2018-09-17T02:29:08.839Z,34.2
2018-09-17T02:30:10.417Z,32.7
2018-09-17T02:31:11.985Z,34.2
2018-09-17T02:32:13.549Z,33.2
2018-09-17T02:33:15.095Z,33.2
2018-09-17T02:34:16.666Z,33.2
2018-09-17T02:35:18.227Z,33.2
2018-09-17T02:36:19.463Z,32.7
2018-09-17T02:37:20.859Z,33.2
2018-09-17T02:38:22.443Z,33.2
2018-09-17T02:39:24.049Z,32.7
2018-09-17T02:40:25.614Z,32.7
2018-09-17T02:41:27.030Z,32.3
2018-09-17T02:42:28.594Z,32.7
2018-09-17T02:43:30.014Z,32.7
2018-09-17T02:44:31.586Z,32.7
2018-09-17T02:45:32.983Z,33.2
2018-09-17T02:46:34.531Z,33.2
2018-09-17T02:47:36.100Z,33.7
2018-09-17T02:48:37.812Z,33.7
2018-09-17T02:49:39.396Z,33.2
2018-09-17T02:50:40.946Z,33.2
2018-09-17T02:51:42.358Z,32.7
2018-09-17T02:52:43.922Z,33.7
2018-09-17T02:53:45.972Z,33.7
2018-09-17T02:54:47.529Z,33.2
2018-09-17T02:55:49.100Z,33.2
2018-09-17T02:56:50.663Z,33.2
2018-09-17T02:57:52.075Z,33.2
2018-09-17T02:58:53.495Z,33.2
2018-09-17T02:59:55.066Z,33.7
2018-09-17T03:00:56.456Z,33.7
2018-09-17T03:01:58.027Z,33.7
2018-09-17T03:02:59.585Z,33.2
2018-09-17T03:04:01.193Z,32.7
2018-09-17T03:05:02.787Z,32.7
2018-09-17T03:06:04.346Z,33.2
2018-09-17T03:07:05.913Z,33.7
2018-09-17T03:08:07.490Z,33.2
2018-09-17T03:09:09.045Z,32.7
2018-09-17T03:10:10.617Z,32.7
2018-09-17T03:11:12.202Z,33.2
2018-09-17T03:12:13.771Z,33.2
2018-09-17T03:13:15.343Z,33.2
2018-09-17T03:14:16.889Z,33.7
2018-09-17T03:15:18.444Z,33.2
2018-09-17T03:16:19.994Z,33.7
2018-09-17T03:17:21.559Z,33.7
2018-09-17T03:18:23.130Z,33.7
2018-09-17T03:19:24.716Z,32.7
2018-09-17T03:20:26.276Z,32.7
2018-09-17T03:21:27.831Z,32.7
2018-09-17T03:22:29.382Z,33.2
2018-09-17T03:23:30.943Z,33.2
2018-09-17T03:24:33.054Z,33.2
2018-09-17T03:25:34.458Z,32.7
2018-09-17T03:26:36.073Z,33.7
2018-09-17T03:27:37.634Z,32.7
2018-09-17T03:28:39.194Z,32.7
2018-09-17T03:29:40.747Z,32.7
2018-09-17T03:30:42.169Z,33.2
2018-09-17T03:31:43.736Z,33.2
2018-09-17T03:32:45.131Z,32.7
2018-09-17T03:33:46.724Z,33.2
2018-09-17T03:34:48.290Z,33.7
2018-09-17T03:35:49.878Z,33.2
2018-09-17T03:36:51.467Z,33.2
2018-09-17T03:37:53.027Z,33.2
2018-09-17T03:38:54.580Z,33.7
2018-09-17T03:39:56.148Z,33.2
2018-09-17T03:40:57.739Z,33.2
2018-09-17T03:41:59.140Z,33.2
2018-09-17T03:43:00.701Z,33.2
2018-09-17T03:44:02.266Z,32.7
2018-09-17T03:45:03.693Z,34.2
2018-09-17T03:46:05.465Z,33.7
2018-09-17T03:47:07.044Z,34.2
2018-09-17T03:48:08.621Z,33.7
2018-09-17T03:49:10.175Z,33.7
2018-09-17T03:50:11.730Z,34.2
2018-09-17T03:51:13.305Z,34.2
2018-09-17T03:52:14.875Z,34.7
2018-09-17T03:53:17.273Z,34.2
2018-09-17T03:54:19.086Z,34.2
2018-09-17T03:55:20.719Z,34.2
2018-09-17T03:56:22.153Z,33.7
2018-09-17T03:57:23.753Z,33.7
2018-09-17T03:58:25.403Z,34.2
2018-09-17T03:59:26.978Z,34.2
2018-09-17T04:00:28.559Z,34.7
2018-09-17T04:01:30.126Z,34.2
2018-09-17T04:02:31.691Z,34.2
2018-09-17T04:03:33.256Z,33.7
2018-09-17T04:04:34.807Z,34.2
2018-09-17T04:05:36.375Z,34.7
2018-09-17T04:06:37.758Z,35.2
2018-09-17T04:07:39.304Z,34.7
2018-09-17T04:08:40.861Z,33.7
2018-09-17T04:09:42.405Z,33.7
2018-09-17T04:10:43.958Z,34.2
2018-09-17T04:11:45.357Z,34.7
2018-09-17T04:12:46.914Z,34.2
2018-09-17T04:13:48.482Z,34.2
2018-09-17T04:14:50.039Z,34.2
2018-09-17T04:15:51.280Z,34.2
2018-09-17T04:16:52.861Z,35.2
2018-09-17T04:17:54.407Z,34.2
2018-09-17T04:18:55.964Z,34.2
2018-09-17T04:19:57.521Z,34.2
2018-09-17T04:20:59.083Z,35.2
2018-09-17T04:22:00.641Z,34.2
2018-09-17T04:23:02.215Z,35.2
2018-09-17T04:24:03.610Z,34.7
2018-09-17T04:25:05.377Z,34.7
2018-09-17T04:26:06.978Z,34.7
2018-09-17T04:27:08.548Z,35.2
2018-09-17T04:28:10.094Z,34.2
2018-09-17T04:29:11.668Z,34.2
2018-09-17T04:30:12.918Z,34.7
2018-09-17T04:31:14.540Z,34.2
2018-09-17T04:32:15.950Z,35.2
2018-09-17T04:33:17.535Z,34.2
2018-09-17T04:34:19.093Z,34.7
2018-09-17T04:35:20.664Z,34.7
2018-09-17T04:36:22.093Z,34.7
2018-09-17T04:37:23.656Z,35.2
2018-09-17T04:38:25.228Z,34.7
2018-09-17T04:39:26.788Z,34.2
2018-09-17T04:40:28.347Z,34.2
2018-09-17T04:41:29.905Z,34.7
2018-09-17T04:42:31.458Z,34.2
2018-09-17T04:43:32.869Z,34.7
2018-09-17T04:44:34.255Z,35.2
2018-09-17T04:45:35.812Z,34.7
2018-09-17T04:46:37.392Z,33.7
2018-09-17T04:47:38.966Z,34.7
2018-09-17T04:48:40.367Z,34.2
2018-09-17T04:49:41.925Z,34.2
2018-09-17T04:50:43.474Z,34.7
2018-09-17T04:51:45.047Z,34.7
2018-09-17T04:52:46.459Z,34.2
2018-09-17T04:53:48.012Z,33.7
2018-09-17T04:54:49.588Z,35.2
2018-09-17T04:55:51.150Z,34.7
2018-09-17T04:56:52.548Z,34.7
2018-09-17T04:57:54.115Z,34.7
2018-09-17T04:58:55.676Z,34.2
2018-09-17T04:59:57.223Z,34.7
2018-09-17T05:00:58.790Z,34.2
2018-09-17T05:02:00.360Z,34.7
2018-09-17T05:03:01.925Z,34.7
2018-09-17T05:04:03.503Z,34.2
2018-09-17T05:05:05.068Z,34.7
2018-09-17T05:06:38.564Z,34.2
2018-09-17T05:07:40.116Z,33.2
2018-09-17T05:08:41.696Z,33.7
2018-09-17T05:09:43.246Z,34.7
2018-09-17T05:10:44.654Z,33.2
2018-09-17T05:11:46.246Z,34.2
2018-09-17T05:12:47.807Z,34.2
2018-09-17T05:13:49.377Z,33.2
2018-09-17T05:14:50.937Z,33.7
2018-09-17T05:15:52.522Z,33.7
2018-09-17T05:16:54.078Z,33.7
2018-09-17T05:17:55.658Z,33.7
2018-09-17T05:18:57.231Z,33.2
2018-09-17T05:19:58.796Z,33.7
2018-09-17T05:21:00.374Z,33.7
2018-09-17T05:22:01.932Z,33.7
2018-09-17T05:23:03.518Z,32.7
2018-09-17T05:24:05.094Z,33.2
2018-09-17T05:25:06.646Z,33.7
2018-09-17T05:26:07.897Z,33.2
2018-09-17T05:27:09.486Z,33.2
2018-09-17T05:28:10.892Z,32.7
2018-09-17T05:29:12.287Z,33.2
2018-09-17T05:30:13.844Z,33.2
2018-09-17T05:31:15.405Z,32.7
2018-09-17T05:32:16.981Z,33.2
2018-09-17T05:33:18.559Z,33.7
2018-09-17T05:34:20.165Z,34.2
2018-09-17T05:35:21.744Z,33.7
2018-09-17T05:36:23.144Z,34.2
2018-09-17T05:37:24.719Z,34.2
2018-09-17T05:38:26.277Z,34.7
2018-09-17T05:39:27.852Z,34.2
2018-09-17T05:40:29.407Z,33.2
2018-09-17T05:41:31.100Z,33.7
2018-09-17T05:42:32.824Z,34.7
2018-09-17T05:43:34.389Z,33.7
2018-09-17T05:44:36.200Z,34.2
2018-09-17T05:45:37.777Z,34.2
2018-09-17T05:46:39.349Z,34.7
2018-09-17T05:47:40.912Z,34.2
2018-09-17T05:48:42.492Z,34.7
2018-09-17T05:49:44.040Z,35.2
2018-09-17T05:50:45.597Z,35.2
2018-09-17T05:51:47.167Z,34.2
2018-09-17T05:52:48.752Z,35.2
2018-09-17T05:53:50.559Z,34.7
2018-09-17T05:54:52.312Z,34.7
2018-09-17T05:55:53.867Z,34.2
2018-09-17T05:56:55.419Z,34.7
2018-09-17T05:57:56.830Z,34.2
2018-09-17T05:58:58.393Z,34.7
2018-09-17T06:00:00.063Z,34.7
2018-09-17T06:01:01.773Z,35.2
2018-09-17T06:02:03.461Z,34.7
2018-09-17T06:03:04.925Z,34.2
2018-09-17T06:04:06.522Z,34.2
2018-09-17T06:05:08.129Z,34.2
2018-09-17T06:06:10.501Z,34.2
2018-09-17T06:07:12.631Z,35.2
2018-09-17T06:08:14.300Z,34.7
2018-09-17T06:09:15.858Z,34.7
2018-09-17T06:10:17.488Z,34.7
2018-09-17T06:11:19.411Z,34.7
2018-09-17T06:12:21.046Z,35.2
2018-09-17T06:13:22.635Z,35.2
2018-09-17T06:14:24.314Z,34.2
2018-09-17T06:15:26.034Z,34.2
2018-09-17T06:16:27.594Z,34.7
2018-09-17T06:17:29.768Z,34.2
2018-09-17T06:18:31.551Z,34.2
2018-09-17T06:19:32.941Z,34.2
2018-09-17T06:20:34.351Z,34.7
2018-09-17T06:21:35.753Z,34.7
2018-09-17T06:22:37.312Z,34.7
2018-09-17T06:23:38.917Z,34.7
2018-09-17T06:24:40.482Z,34.7
2018-09-17T06:25:42.056Z,34.7
2018-09-17T06:26:43.949Z,34.7
2018-09-17T06:27:45.356Z,34.2
2018-09-17T06:28:47.526Z,34.2
2018-09-17T06:29:49.256Z,34.2
2018-09-17T06:30:50.843Z,34.2
2018-09-17T06:31:52.413Z,34.2
2018-09-17T06:32:54.009Z,34.7
2018-09-17T06:33:55.412Z,34.7
2018-09-17T06:34:56.974Z,34.2
2018-09-17T06:35:58.541Z,34.7
2018-09-17T06:37:00.117Z,34.2
2018-09-17T06:38:01.713Z,34.7
2018-09-17T06:39:03.125Z,34.2
2018-09-17T06:40:04.574Z,35.2
2018-09-17T06:41:06.143Z,34.7
2018-09-17T06:42:07.698Z,34.7
2018-09-17T06:43:09.295Z,33.7
2018-09-17T06:44:10.927Z,34.2
2018-09-17T06:45:12.503Z,34.2
2018-09-17T06:46:14.077Z,34.2
2018-09-17T06:47:15.461Z,34.2
2018-09-17T06:48:17.078Z,34.2
2018-09-17T06:49:18.628Z,33.2
2018-09-17T06:50:20.193Z,33.7
2018-09-17T06:51:21.981Z,34.2
2018-09-17T06:52:23.654Z,33.7
2018-09-17T06:53:25.251Z,34.7
2018-09-17T06:54:26.678Z,33.7
2018-09-17T06:55:28.256Z,33.7
2018-09-17T06:56:29.829Z,33.7
2018-09-17T06:57:31.393Z,34.2
2018-09-17T06:58:32.937Z,34.7
2018-09-17T06:59:34.502Z,34.2
2018-09-17T07:00:36.092Z,34.2
2018-09-17T07:01:37.499Z,33.7
2018-09-17T07:02:39.069Z,33.2
2018-09-17T07:03:40.646Z,33.7
2018-09-17T07:04:42.213Z,34.2
2018-09-17T07:05:43.759Z,33.7
2018-09-17T07:06:45.330Z,33.7
2018-09-17T07:07:46.911Z,33.7
2018-09-17T07:08:48.468Z,34.2
2018-09-17T07:09:50.039Z,34.2
2018-09-17T07:10:51.609Z,33.7
2018-09-17T07:11:53.167Z,34.2
2018-09-17T07:12:54.736Z,33.2
2018-09-17T07:13:56.290Z,33.2
2018-09-17T07:14:57.980Z,33.2
2018-09-17T07:15:59.351Z,33.7
2018-09-17T07:17:00.928Z,33.2
2018-09-17T07:18:02.716Z,32.3
2018-09-17T07:19:04.386Z,32.7
2018-09-17T07:20:05.957Z,32.7
2018-09-17T07:21:07.518Z,32.7
2018-09-17T07:22:09.088Z,32.7
2018-09-17T07:23:10.639Z,34.2
2018-09-17T07:24:12.221Z,41.5
2018-09-17T07:25:14.033Z,45
2018-09-17T07:26:15.678Z,46.9
2018-09-17T07:27:17.241Z,48.4
2018-09-17T07:28:18.808Z,47.9
2018-09-17T07:29:20.374Z,48.4
2018-09-17T07:30:21.971Z,47.9
2018-09-17T07:31:23.357Z,48.4
2018-09-17T07:32:24.927Z,47.9
2018-09-17T07:33:26.496Z,48.4
2018-09-17T07:34:28.065Z,47.4
2018-09-17T07:35:29.607Z,46.9
2018-09-17T07:36:31.903Z,46.4
2018-09-17T07:37:33.659Z,46.4
2018-09-17T07:38:35.225Z,46.4
2018-09-17T07:39:36.822Z,46.4
2018-09-17T07:40:38.257Z,45.9
2018-09-17T07:41:39.668Z,45.5
2018-09-17T07:42:41.286Z,45
2018-09-17T07:43:42.868Z,44.5
2018-09-17T07:44:44.451Z,45
2018-09-17T07:45:45.982Z,44.5
2018-09-17T07:46:47.655Z,44
2018-09-17T07:47:49.467Z,44.5
2018-09-17T07:48:51.119Z,43.5
2018-09-17T07:49:52.673Z,43.5
2018-09-17T07:50:54.276Z,43.5
2018-09-17T07:51:55.873Z,43.5
2018-09-17T07:52:57.891Z,43.5
2018-09-17T07:53:59.589Z,42.5
2018-09-17T07:55:01.184Z,42.5
2018-09-17T07:56:02.751Z,43
2018-09-17T07:57:04.332Z,43
2018-09-17T07:58:05.896Z,41.5
2018-09-17T07:59:07.464Z,42
2018-09-17T08:00:09.135Z,42
2018-09-17T08:01:10.797Z,42.5
2018-09-17T08:02:12.402Z,41.5
2018-09-17T08:03:13.967Z,41.5
2018-09-17T08:04:15.548Z,41.5
2018-09-17T08:05:16.963Z,41.5
2018-09-17T08:06:18.515Z,41.1
2018-09-17T08:07:20.078Z,41.1
2018-09-17T08:08:21.664Z,41.1
2018-09-17T08:09:23.243Z,40.6
2018-09-17T08:10:24.818Z,41.1
2018-09-17T08:11:26.397Z,40.1
2018-09-17T08:12:27.968Z,40.1
2018-09-17T08:13:29.537Z,40.1
2018-09-17T08:14:31.106Z,39.6
2018-09-17T08:15:32.694Z,40.1
2018-09-17T08:16:34.263Z,40.1
2018-09-17T08:17:35.833Z,40.1
2018-09-17T08:18:37.414Z,40.1
2018-09-17T08:19:39.328Z,39.6
2018-09-17T08:20:40.796Z,39.1
2018-09-17T08:21:42.370Z,39.1
2018-09-17T08:22:43.948Z,39.1
2018-09-17T08:23:45.507Z,39.1
2018-09-17T08:24:47.067Z,38.6
2018-09-17T08:25:48.654Z,38.1
2018-09-17T08:26:50.265Z,39.1
2018-09-17T08:27:51.826Z,38.6
2018-09-17T08:28:53.236Z,38.6
2018-09-17T08:29:54.841Z,39.1
2018-09-17T08:30:56.258Z,39.1
2018-09-17T08:31:57.819Z,38.6
2018-09-17T08:32:59.387Z,38.6
2018-09-17T08:34:00.952Z,37.6
2018-09-17T08:35:02.518Z,38.6
2018-09-17T08:36:04.083Z,38.1
2018-09-17T08:37:05.653Z,38.1
2018-09-17T08:38:07.355Z,37.6
2018-09-17T08:39:08.992Z,37.6
2018-09-17T08:40:10.564Z,37.6
2018-09-17T08:41:12.132Z,38.1
2018-09-17T08:42:13.546Z,37.6
2018-09-17T08:43:15.144Z,38.1
2018-09-17T08:44:16.707Z,37.1
2018-09-17T08:45:18.277Z,38.1
2018-09-17T08:46:19.867Z,37.1
2018-09-17T08:47:21.120Z,36.7
2018-09-17T08:48:22.691Z,37.6
2018-09-17T08:49:24.280Z,37.1
2018-09-17T08:50:25.988Z,38.1
2018-09-17T08:51:27.723Z,37.6
2018-09-17T08:52:29.409Z,36.7
2018-09-17T08:53:30.973Z,37.1
2018-09-17T08:54:32.558Z,36.7
2018-09-17T08:55:34.155Z,36.7
2018-09-17T08:56:35.711Z,36.7
2018-09-17T08:57:37.289Z,36.7
2018-09-17T08:58:38.883Z,36.2
2018-09-17T08:59:40.445Z,36.7
2018-09-17T09:00:42.017Z,36.7
2018-09-17T09:01:43.608Z,37.1
2018-09-17T09:02:45.007Z,36.2
2018-09-17T09:03:46.404Z,37.1
2018-09-17T09:04:47.979Z,36.7
2018-09-17T09:05:49.562Z,36.2
2018-09-17T09:06:50.976Z,36.7
2018-09-17T09:07:52.539Z,35.7
2018-09-17T09:08:54.114Z,36.7
2018-09-17T09:09:55.677Z,35.7
2018-09-17T09:10:57.074Z,35.2
2018-09-17T09:11:58.653Z,35.7
2018-09-17T09:13:00.250Z,35.2
2018-09-17T09:14:01.856Z,35.7
2018-09-17T09:15:03.438Z,35.7
2018-09-17T09:16:05.000Z,34.7
2018-09-17T09:17:06.579Z,35.2
2018-09-17T09:18:08.153Z,34.2
2018-09-17T09:19:09.758Z,35.2
2018-09-17T09:20:11.337Z,35.7
2018-09-17T09:21:12.922Z,35.2
2018-09-17T09:22:14.322Z,35.2
2018-09-17T09:23:15.728Z,35.2
2018-09-17T09:24:17.298Z,35.2
2018-09-17T09:25:18.876Z,35.7
2018-09-17T09:26:20.855Z,35.2
2018-09-17T09:27:22.615Z,35.2
2018-09-17T09:28:24.195Z,35.7
2018-09-17T09:29:25.818Z,35.2
2018-09-17T09:30:27.397Z,35.7
2018-09-17T09:31:29.000Z,35.2
2018-09-17T09:32:30.560Z,36.2
2018-09-17T09:33:32.132Z,35.7
2018-09-17T09:34:33.535Z,35.2
2018-09-17T09:35:35.095Z,35.7
2018-09-17T09:36:36.658Z,36.2
2018-09-17T09:37:38.231Z,36.2
2018-09-17T09:38:39.788Z,35.7
2018-09-17T09:39:41.351Z,36.2
2018-09-17T09:40:42.954Z,36.2
2018-09-17T09:41:44.528Z,36.2
2018-09-17T09:42:46.088Z,36.2
2018-09-17T09:43:47.668Z,35.7
2018-09-17T09:44:49.225Z,35.7
2018-09-17T09:45:50.809Z,36.2
2018-09-17T09:46:52.226Z,35.7
2018-09-17T09:47:53.822Z,36.2
2018-09-17T09:48:55.223Z,35.7
2018-09-17T09:49:56.787Z,36.7
2018-09-17T09:50:58.210Z,35.7
2018-09-17T09:51:59.794Z,36.2
2018-09-17T09:53:01.349Z,36.7
2018-09-17T09:54:02.902Z,35.7
2018-09-17T09:55:04.485Z,36.2
2018-09-17T09:56:06.058Z,35.2
2018-09-17T09:57:07.619Z,35.7
2018-09-17T09:58:09.218Z,35.7
2018-09-17T09:59:10.773Z,36.2
2018-09-17T10:00:12.350Z,35.2
2018-09-17T10:01:13.972Z,35.2
2018-09-17T10:02:15.543Z,35.7
2018-09-17T10:03:17.109Z,35.7
2018-09-17T10:04:18.672Z,35.2
2018-09-17T10:05:20.247Z,35.2
2018-09-17T10:06:21.824Z,36.2
2018-09-17T10:07:23.414Z,36.2
2018-09-17T10:08:24.984Z,35.7
2018-09-17T10:09:26.539Z,35.2
2018-09-17T10:10:28.113Z,35.7
2018-09-17T10:11:29.832Z,35.7
2018-09-17T10:12:31.458Z,35.7
2018-09-17T10:13:33.036Z,35.7
2018-09-17T10:14:34.607Z,35.2
2018-09-17T10:15:36.210Z,35.2
2018-09-17T10:16:37.776Z,35.7
2018-09-17T10:17:39.320Z,35.7
2018-09-17T10:18:40.879Z,35.7
2018-09-17T10:19:42.270Z,34.7
2018-09-17T10:20:43.908Z,34.7
2018-09-17T10:21:45.479Z,35.2
2018-09-17T10:22:47.049Z,35.2
2018-09-17T10:23:48.607Z,35.2
2018-09-17T10:24:50.161Z,35.7
2018-09-17T10:25:51.730Z,34.7
2018-09-17T10:26:53.311Z,34.7
2018-09-17T10:27:54.857Z,35.7
2018-09-17T10:30:05.829Z,35.2
2018-09-17T10:31:07.417Z,34.7
2018-09-17T10:32:08.989Z,35.2
2018-09-17T10:33:10.554Z,34.7
2018-09-17T10:34:12.158Z,34.7
2018-09-17T10:35:13.727Z,35.7
2018-09-17T10:36:15.157Z,34.7
2018-09-17T10:37:16.547Z,34.7
2018-09-17T10:38:18.106Z,35.2
2018-09-17T10:39:19.683Z,34.7
2018-09-17T10:40:21.267Z,34.7
2018-09-17T10:41:22.852Z,35.2
2018-09-17T10:42:24.489Z,34.7
2018-09-17T10:43:25.899Z,35.2
2018-09-17T10:44:27.457Z,34.2
2018-09-17T10:45:29.020Z,34.7
2018-09-17T10:46:30.590Z,35.2
2018-09-17T10:47:32.165Z,34.7
2018-09-17T10:48:33.738Z,34.2
2018-09-17T10:49:35.317Z,35.2
2018-09-17T10:50:36.896Z,34.7
2018-09-17T10:51:38.480Z,35.2
2018-09-17T10:52:40.078Z,34.2
2018-09-17T10:53:41.647Z,35.2
2018-09-17T10:54:43.066Z,34.7
2018-09-17T10:55:44.638Z,34.2
2018-09-17T10:56:46.216Z,33.7
2018-09-17T10:57:47.647Z,34.2
2018-09-17T10:58:49.208Z,34.7
2018-09-17T10:59:50.625Z,34.2
2018-09-17T11:00:52.198Z,33.7
2018-09-17T11:01:53.817Z,33.7
2018-09-17T11:02:55.395Z,33.2
2018-09-17T11:03:57.075Z,33.7
2018-09-17T11:04:58.637Z,33.2
2018-09-17T11:06:00.060Z,33.7
2018-09-17T11:07:01.478Z,33.2
2018-09-17T11:08:03.060Z,33.7
2018-09-17T11:09:04.637Z,33.2
2018-09-17T11:10:06.225Z,33.2
2018-09-17T11:11:07.930Z,33.2
2018-09-17T11:12:09.565Z,33.2
2018-09-17T11:13:11.137Z,33.2
2018-09-17T11:14:12.526Z,33.2
2018-09-17T11:15:13.916Z,34.2
2018-09-17T11:16:15.496Z,33.2
2018-09-17T11:17:17.557Z,33.7
2018-09-17T11:18:18.982Z,33.7
2018-09-17T11:19:20.568Z,33.2
2018-09-17T11:20:22.136Z,34.2
2018-09-17T11:21:23.696Z,34.2
2018-09-17T11:22:25.280Z,33.2
2018-09-17T11:23:26.846Z,33.7
2018-09-17T11:24:28.417Z,34.2
2018-09-17T11:25:30.007Z,33.7
2018-09-17T11:26:31.569Z,34.2
2018-09-17T11:27:32.991Z,34.2
2018-09-17T11:28:34.545Z,34.2
2018-09-17T11:29:36.111Z,34.7
2018-09-17T11:30:37.688Z,34.7
2018-09-17T11:31:39.258Z,34.2
2018-09-17T11:32:40.648Z,34.7
2018-09-17T11:33:42.043Z,33.7
2018-09-17T11:34:43.487Z,34.7
2018-09-17T11:35:45.044Z,35.2
2018-09-17T11:36:46.602Z,34.2
2018-09-17T11:37:48.160Z,34.2
2018-09-17T11:38:49.739Z,34.7
2018-09-17T11:39:51.138Z,34.2
2018-09-17T11:40:52.711Z,34.7
2018-09-17T11:41:54.119Z,34.7
2018-09-17T11:42:55.697Z,34.2
2018-09-17T11:43:57.255Z,34.2
2018-09-17T11:44:58.840Z,34.7
2018-09-17T11:46:00.328Z,33.7
2018-09-17T11:47:02.249Z,34.7
2018-09-17T11:48:03.956Z,34.2
2018-09-17T11:49:05.609Z,34.7
2018-09-17T11:50:07.203Z,35.2
2018-09-17T11:51:08.776Z,34.2
2018-09-17T11:52:10.378Z,33.7
2018-09-17T11:53:11.981Z,34.2
2018-09-17T11:54:13.564Z,34.7
2018-09-17T11:55:15.119Z,34.2
2018-09-17T11:56:16.717Z,34.7
2018-09-17T11:57:18.479Z,34.2
2018-09-17T11:58:20.113Z,33.7
2018-09-17T11:59:21.708Z,33.7
2018-09-17T12:00:23.298Z,34.2
2018-09-17T12:01:24.707Z,33.7
2018-09-17T12:02:26.111Z,33.7
2018-09-17T12:03:27.670Z,34.2
2018-09-17T12:04:29.263Z,33.7
2018-09-17T12:05:30.831Z,33.7
2018-09-17T12:06:32.606Z,34.2
2018-09-17T12:07:34.294Z,33.7
2018-09-17T12:08:35.917Z,33.7
2018-09-17T12:09:37.482Z,34.2
2018-09-17T12:10:39.068Z,33.7
2018-09-17T12:11:40.653Z,33.7
2018-09-17T12:12:42.248Z,34.2
2018-09-17T12:13:43.816Z,33.7
2018-09-17T12:14:45.369Z,34.2
2018-09-17T12:15:46.943Z,33.7
2018-09-17T12:16:48.505Z,33.7
2018-09-17T12:17:50.079Z,33.2
2018-09-17T12:18:51.639Z,33.2
2018-09-17T12:19:53.203Z,33.7
2018-09-17T12:20:54.767Z,33.2
2018-09-17T12:21:56.330Z,33.7
2018-09-17T12:22:57.727Z,33.2
2018-09-17T12:23:59.692Z,33.2
2018-09-17T12:25:01.398Z,33.2
2018-09-17T12:26:02.810Z,32.7
2018-09-17T12:27:04.376Z,33.2
2018-09-17T12:28:05.968Z,33.2
2018-09-17T12:29:07.578Z,34.2
2018-09-17T12:30:09.241Z,32.7
2018-09-17T12:31:10.829Z,33.2
2018-09-17T12:32:12.414Z,32.7
2018-09-17T12:33:13.984Z,32.7
2018-09-17T12:34:15.563Z,33.2
2018-09-17T12:35:17.114Z,32.7
2018-09-17T12:36:18.677Z,33.2
2018-09-17T12:37:20.242Z,32.3
2018-09-17T12:38:21.818Z,32.7
2018-09-17T12:39:23.371Z,33.2
2018-09-17T12:40:24.947Z,33.2
2018-09-17T12:41:26.370Z,32.7
2018-09-17T12:42:27.968Z,32.3
2018-09-17T12:43:29.559Z,32.7
2018-09-17T12:44:30.805Z,32.7
2018-09-17T12:45:32.369Z,33.2
2018-09-17T12:46:33.961Z,32.3
2018-09-17T12:47:35.366Z,32.3
2018-09-17T12:48:36.772Z,32.7
2018-09-17T12:49:38.342Z,33.2
2018-09-17T12:50:39.973Z,32.3
2018-09-17T12:51:41.373Z,32.3
2018-09-17T12:52:42.930Z,32.3
2018-09-17T12:53:44.497Z,32.3
2018-09-17T12:54:46.103Z,32.3
2018-09-17T12:55:47.674Z,31.8
2018-09-17T12:56:49.223Z,31.8
2018-09-17T12:57:50.785Z,32.3
2018-09-17T12:58:52.257Z,31.8
2018-09-17T12:59:53.851Z,32.3
2018-09-17T13:00:55.477Z,32.3
2018-09-17T13:01:57.118Z,31.8
2018-09-17T13:02:58.678Z,32.3
2018-09-17T13:04:00.260Z,31.8
2018-09-17T13:05:01.850Z,31.8
2018-09-17T13:06:03.432Z,32.3
2018-09-17T13:07:05.008Z,32.3
2018-09-17T13:08:06.589Z,32.3
2018-09-17T13:09:08.172Z,31.8
2018-09-17T13:10:09.729Z,32.7
2018-09-17T13:11:11.150Z,32.3
2018-09-17T13:12:12.740Z,32.3
2018-09-17T13:13:14.149Z,32.7
2018-09-17T13:14:15.734Z,32.7
2018-09-17T13:15:17.300Z,32.3
2018-09-17T13:16:18.894Z,32.3
2018-09-17T13:17:20.486Z,31.8
2018-09-17T13:18:22.054Z,32.7
2018-09-17T13:19:23.704Z,32.7
2018-09-17T13:20:25.264Z,31.8
2018-09-17T13:21:26.855Z,32.3
2018-09-17T13:22:28.262Z,32.7
2018-09-17T13:23:29.846Z,31.8
2018-09-17T13:24:31.429Z,31.8
2018-09-17T13:25:32.984Z,32.7
2018-09-17T13:26:34.403Z,32.3
2018-09-17T13:27:36.009Z,32.7
2018-09-17T13:28:37.598Z,32.3
2018-09-17T13:29:39.198Z,32.7
2018-09-17T13:30:40.793Z,31.8
2018-09-17T13:31:42.637Z,32.7
2018-09-17T13:32:44.391Z,32.3
2018-09-17T13:33:45.826Z,31.8
2018-09-17T13:34:47.429Z,32.3
2018-09-17T13:35:49.003Z,32.3
2018-09-17T13:36:50.688Z,32.3
2018-09-17T13:37:52.276Z,32.7
2018-09-17T13:38:53.853Z,32.3
2018-09-17T13:39:55.432Z,33.2
2018-09-17T13:40:56.997Z,32.7
2018-09-17T13:41:58.564Z,31.8